sensor_id;sensor_type;location;lat;lon;timestamp;temperature;humidity
21176;DHT22;10746;50.178;8.186;2022-10-29T00:02:24;13.10;99.90
21176;DHT22;10746;50.178;8.186;2022-10-29T00:04:51;13.00;99.90
21176;DHT22;10746;50.178;8.186;2022-10-29T00:07:18;13.00;99.90
21176;DHT22;10746;50.178;8.186;2022-10-29T00:09:44;13.00;99.90
21176;DHT22;10746;50.178;8.186;2022-10-29T00:12:11;13.00;99.90
21176;DHT22;10746;50.178;8.186;2022-10-29T00:14:38;12.90;99.90
21176;DHT22;10746;50.178;8.186;2022-10-29T00:17:06;12.80;99.90
21176;DHT22;10746;50.178;8.186;2022-10-29T00:19:33;12.70;99.90
21176;DHT22;10746;50.178;8.186;2022-10-29T00:21:59;12.60;99.90
21176;DHT22;10746;50.178;8.186;2022-10-29T00:24:26;12.60;99.90
21176;DHT22;10746;50.178;8.186;2022-10-29T00:26:53;12.50;99.90
21176;DHT22;10746;50.178;8.186;2022-10-29T00:29:20;12.70;99.90
21176;DHT22;10746;50.178;8.186;2022-10-29T00:31:48;12.80;99.90
21176;DHT22;10746;50.178;8.186;2022-10-29T00:34:16;12.80;99.90
21176;DHT22;10746;50.178;8.186;2022-10-29T00:36:43;12.70;99.90
21176;DHT22;10746;50.178;8.186;2022-10-29T00:39:13;12.60;99.90
21176;DHT22;10746;50.178;8.186;2022-10-29T00:41:40;12.60;99.90
21176;DHT22;10746;50.178;8.186;2022-10-29T00:44:29;12.70;99.90
21176;DHT22;10746;50.178;8.186;2022-10-29T00:47:08;12.70;99.90
21176;DHT22;10746;50.178;8.186;2022-10-29T00:49:39;12.60;99.90
21176;DHT22;10746;50.178;8.186;2022-10-29T00:52:08;12.70;99.90
21176;DHT22;10746;50.178;8.186;2022-10-29T00:54:39;12.50;99.90
21176;DHT22;10746;50.178;8.186;2022-10-29T00:57:09;12.50;99.90
21176;DHT22;10746;50.178;8.186;2022-10-29T00:59:38;12.50;99.90
21176;DHT22;10746;50.178;8.186;2022-10-29T01:02:05;12.50;99.90
21176;DHT22;10746;50.178;8.186;2022-10-29T01:04:33;12.50;99.90
21176;DHT22;10746;50.178;8.186;2022-10-29T01:07:02;12.40;99.90
21176;DHT22;10746;50.178;8.186;2022-10-29T01:09:29;12.20;99.90
21176;DHT22;10746;50.178;8.186;2022-10-29T01:12:07;12.10;99.90
21176;DHT22;10746;50.178;8.186;2022-10-29T01:14:46;11.90;99.90
21176;DHT22;10746;50.178;8.186;2022-10-29T01:17:23;12.00;99.90
21176;DHT22;10746;50.178;8.186;2022-10-29T01:20:16;12.00;99.90
21176;DHT22;10746;50.178;8.186;2022-10-29T01:23:09;11.90;99.90
21176;DHT22;10746;50.178;8.186;2022-10-29T01:25:59;11.90;99.90
21176;DHT22;10746;50.178;8.186;2022-10-29T01:28:36;12.00;99.90
21176;DHT22;10746;50.178;8.186;2022-10-29T01:31:17;12.10;99.90
21176;DHT22;10746;50.178;8.186;2022-10-29T01:33:52;12.10;99.90
21176;DHT22;10746;50.178;8.186;2022-10-29T01:36:27;12.10;99.90
21176;DHT22;10746;50.178;8.186;2022-10-29T01:39:03;12.00;99.90
21176;DHT22;10746;50.178;8.186;2022-10-29T01:41:39;11.90;99.90
21176;DHT22;10746;50.178;8.186;2022-10-29T01:44:14;11.90;99.90
21176;DHT22;10746;50.178;8.186;2022-10-29T01:46:48;12.00;99.90
21176;DHT22;10746;50.178;8.186;2022-10-29T01:49:23;12.00;99.90
21176;DHT22;10746;50.178;8.186;2022-10-29T01:51:53;12.00;99.90
21176;DHT22;10746;50.178;8.186;2022-10-29T01:54:21;12.00;99.90
21176;DHT22;10746;50.178;8.186;2022-10-29T01:56:53;12.10;99.90
21176;DHT22;10746;50.178;8.186;2022-10-29T01:59:20;12.10;99.90
21176;DHT22;10746;50.178;8.186;2022-10-29T02:01:58;12.00;99.90
21176;DHT22;10746;50.178;8.186;2022-10-29T02:04:49;12.00;99.90
21176;DHT22;10746;50.178;8.186;2022-10-29T02:07:28;12.10;99.90
21176;DHT22;10746;50.178;8.186;2022-10-29T02:10:06;12.10;99.90
21176;DHT22;10746;50.178;8.186;2022-10-29T02:12:35;12.10;99.90
21176;DHT22;10746;50.178;8.186;2022-10-29T02:15:07;12.10;99.90
21176;DHT22;10746;50.178;8.186;2022-10-29T02:17:37;12.20;99.90
21176;DHT22;10746;50.178;8.186;2022-10-29T02:20:05;12.20;99.90
21176;DHT22;10746;50.178;8.186;2022-10-29T02:22:32;12.20;99.90
21176;DHT22;10746;50.178;8.186;2022-10-29T02:24:59;12.40;99.90
21176;DHT22;10746;50.178;8.186;2022-10-29T02:27:26;12.20;99.90
21176;DHT22;10746;50.178;8.186;2022-10-29T02:29:53;12.20;99.90
21176;DHT22;10746;50.178;8.186;2022-10-29T02:32:20;12.20;99.90
21176;DHT22;10746;50.178;8.186;2022-10-29T02:34:48;12.10;99.90
21176;DHT22;10746;50.178;8.186;2022-10-29T02:37:15;12.20;99.90
21176;DHT22;10746;50.178;8.186;2022-10-29T02:39:41;12.10;99.90
21176;DHT22;10746;50.178;8.186;2022-10-29T02:42:09;12.20;99.90
21176;DHT22;10746;50.178;8.186;2022-10-29T02:44:36;12.20;99.90
21176;DHT22;10746;50.178;8.186;2022-10-29T02:47:02;12.30;99.90
21176;DHT22;10746;50.178;8.186;2022-10-29T02:49:29;12.20;99.90
21176;DHT22;10746;50.178;8.186;2022-10-29T02:51:57;12.10;99.90
21176;DHT22;10746;50.178;8.186;2022-10-29T02:54:24;12.00;99.90
21176;DHT22;10746;50.178;8.186;2022-10-29T02:56:51;12.00;99.90
21176;DHT22;10746;50.178;8.186;2022-10-29T02:59:17;12.00;99.90
21176;DHT22;10746;50.178;8.186;2022-10-29T03:01:44;12.00;99.90
21176;DHT22;10746;50.178;8.186;2022-10-29T03:04:11;11.80;99.90
21176;DHT22;10746;50.178;8.186;2022-10-29T03:06:38;11.70;99.90
21176;DHT22;10746;50.178;8.186;2022-10-29T03:09:06;11.70;99.90
21176;DHT22;10746;50.178;8.186;2022-10-29T03:11:33;11.70;99.90
21176;DHT22;10746;50.178;8.186;2022-10-29T03:13:59;11.70;99.90
21176;DHT22;10746;50.178;8.186;2022-10-29T03:16:26;11.70;99.90
21176;DHT22;10746;50.178;8.186;2022-10-29T03:18:53;11.60;99.90
21176;DHT22;10746;50.178;8.186;2022-10-29T03:21:20;11.60;99.90
21176;DHT22;10746;50.178;8.186;2022-10-29T03:23:46;11.60;99.90
21176;DHT22;10746;50.178;8.186;2022-10-29T03:26:15;11.50;99.90
21176;DHT22;10746;50.178;8.186;2022-10-29T03:28:41;11.50;99.90
21176;DHT22;10746;50.178;8.186;2022-10-29T03:31:08;11.50;99.90
21176;DHT22;10746;50.178;8.186;2022-10-29T03:33:35;11.50;99.90
21176;DHT22;10746;50.178;8.186;2022-10-29T03:36:03;11.50;99.90
21176;DHT22;10746;50.178;8.186;2022-10-29T03:38:31;11.50;99.90
21176;DHT22;10746;50.178;8.186;2022-10-29T03:40:58;11.50;99.90
21176;DHT22;10746;50.178;8.186;2022-10-29T03:43:26;11.40;99.90
21176;DHT22;10746;50.178;8.186;2022-10-29T03:45:54;11.40;99.90
21176;DHT22;10746;50.178;8.186;2022-10-29T03:48:22;11.40;99.90
21176;DHT22;10746;50.178;8.186;2022-10-29T03:50:56;11.40;99.90
21176;DHT22;10746;50.178;8.186;2022-10-29T03:53:23;11.40;99.90
21176;DHT22;10746;50.178;8.186;2022-10-29T03:55:50;11.50;99.90
21176;DHT22;10746;50.178;8.186;2022-10-29T03:58:18;11.40;99.90
21176;DHT22;10746;50.178;8.186;2022-10-29T04:00:54;11.60;99.90
21176;DHT22;10746;50.178;8.186;2022-10-29T04:03:20;11.50;99.90
21176;DHT22;10746;50.178;8.186;2022-10-29T04:05:47;11.50;99.90
21176;DHT22;10746;50.178;8.186;2022-10-29T04:08:14;11.60;99.90
21176;DHT22;10746;50.178;8.186;2022-10-29T04:10:43;11.50;99.90
21176;DHT22;10746;50.178;8.186;2022-10-29T04:13:10;11.70;99.90
21176;DHT22;10746;50.178;8.186;2022-10-29T04:15:37;11.60;99.90
21176;DHT22;10746;50.178;8.186;2022-10-29T04:18:05;11.60;99.90
21176;DHT22;10746;50.178;8.186;2022-10-29T04:20:32;11.70;99.90
21176;DHT22;10746;50.178;8.186;2022-10-29T04:22:59;11.70;99.90
21176;DHT22;10746;50.178;8.186;2022-10-29T04:25:26;11.70;99.90
21176;DHT22;10746;50.178;8.186;2022-10-29T04:27:53;11.80;99.90
21176;DHT22;10746;50.178;8.186;2022-10-29T04:30:20;11.70;99.90
21176;DHT22;10746;50.178;8.186;2022-10-29T04:32:47;11.70;99.90
21176;DHT22;10746;50.178;8.186;2022-10-29T04:35:15;11.80;99.90
21176;DHT22;10746;50.178;8.186;2022-10-29T04:37:42;11.90;99.90
21176;DHT22;10746;50.178;8.186;2022-10-29T04:40:10;11.90;99.90
21176;DHT22;10746;50.178;8.186;2022-10-29T04:42:37;11.90;99.90
21176;DHT22;10746;50.178;8.186;2022-10-29T04:45:04;12.00;99.90
21176;DHT22;10746;50.178;8.186;2022-10-29T04:47:31;12.10;99.90
21176;DHT22;10746;50.178;8.186;2022-10-29T04:49:58;12.20;99.90
21176;DHT22;10746;50.178;8.186;2022-10-29T04:52:27;12.20;99.90
21176;DHT22;10746;50.178;8.186;2022-10-29T04:54:53;12.20;99.90
21176;DHT22;10746;50.178;8.186;2022-10-29T04:57:20;12.40;99.90
21176;DHT22;10746;50.178;8.186;2022-10-29T04:59:47;12.30;99.90
21176;DHT22;10746;50.178;8.186;2022-10-29T05:02:13;12.30;99.90
21176;DHT22;10746;50.178;8.186;2022-10-29T05:04:40;12.40;99.90
21176;DHT22;10746;50.178;8.186;2022-10-29T05:07:07;12.40;99.90
21176;DHT22;10746;50.178;8.186;2022-10-29T05:09:35;12.50;99.90
21176;DHT22;10746;50.178;8.186;2022-10-29T05:12:01;12.60;99.90
21176;DHT22;10746;50.178;8.186;2022-10-29T05:14:28;12.70;99.90
21176;DHT22;10746;50.178;8.186;2022-10-29T05:16:55;12.90;99.90
21176;DHT22;10746;50.178;8.186;2022-10-29T05:19:22;12.80;99.90
21176;DHT22;10746;50.178;8.186;2022-10-29T05:21:48;12.90;99.90
21176;DHT22;10746;50.178;8.186;2022-10-29T05:24:15;12.70;99.90
21176;DHT22;10746;50.178;8.186;2022-10-29T05:26:43;12.80;99.90
21176;DHT22;10746;50.178;8.186;2022-10-29T05:29:10;12.80;99.90
21176;DHT22;10746;50.178;8.186;2022-10-29T05:31:36;12.90;99.90
21176;DHT22;10746;50.178;8.186;2022-10-29T05:34:03;13.00;99.90
21176;DHT22;10746;50.178;8.186;2022-10-29T05:36:30;12.90;99.90
21176;DHT22;10746;50.178;8.186;2022-10-29T05:38:57;12.90;99.90
21176;DHT22;10746;50.178;8.186;2022-10-29T05:41:23;12.80;99.90
21176;DHT22;10746;50.178;8.186;2022-10-29T05:43:52;13.00;99.90
21176;DHT22;10746;50.178;8.186;2022-10-29T05:46:18;13.00;99.90
21176;DHT22;10746;50.178;8.186;2022-10-29T05:48:45;13.10;99.90
21176;DHT22;10746;50.178;8.186;2022-10-29T05:51:12;13.00;99.90
21176;DHT22;10746;50.178;8.186;2022-10-29T05:53:38;13.00;99.90
21176;DHT22;10746;50.178;8.186;2022-10-29T05:56:06;13.20;99.90
21176;DHT22;10746;50.178;8.186;2022-10-29T05:58:32;13.30;99.90
21176;DHT22;10746;50.178;8.186;2022-10-29T06:01:04;13.50;99.90
21176;DHT22;10746;50.178;8.186;2022-10-29T06:03:31;13.40;99.90
21176;DHT22;10746;50.178;8.186;2022-10-29T06:05:58;13.60;99.90
21176;DHT22;10746;50.178;8.186;2022-10-29T06:08:25;13.60;99.90
21176;DHT22;10746;50.178;8.186;2022-10-29T06:10:52;13.80;99.90
21176;DHT22;10746;50.178;8.186;2022-10-29T06:13:20;13.90;99.90
21176;DHT22;10746;50.178;8.186;2022-10-29T06:15:48;13.80;99.90
21176;DHT22;10746;50.178;8.186;2022-10-29T06:18:17;13.70;99.90
21176;DHT22;10746;50.178;8.186;2022-10-29T06:20:43;13.70;99.90
21176;DHT22;10746;50.178;8.186;2022-10-29T06:23:10;13.80;99.90
21176;DHT22;10746;50.178;8.186;2022-10-29T06:25:37;13.80;99.90
21176;DHT22;10746;50.178;8.186;2022-10-29T06:28:06;13.80;99.90
21176;DHT22;10746;50.178;8.186;2022-10-29T06:30:34;13.80;99.90
21176;DHT22;10746;50.178;8.186;2022-10-29T06:33:02;13.80;99.90
21176;DHT22;10746;50.178;8.186;2022-10-29T06:35:30;13.80;99.90
21176;DHT22;10746;50.178;8.186;2022-10-29T06:37:57;13.70;99.90
21176;DHT22;10746;50.178;8.186;2022-10-29T06:40:24;13.80;99.90
21176;DHT22;10746;50.178;8.186;2022-10-29T06:42:57;13.70;99.90
21176;DHT22;10746;50.178;8.186;2022-10-29T06:45:24;13.70;99.90
21176;DHT22;10746;50.178;8.186;2022-10-29T06:47:51;13.60;99.90
21176;DHT22;10746;50.178;8.186;2022-10-29T06:50:18;13.90;99.90
21176;DHT22;10746;50.178;8.186;2022-10-29T06:52:54;14.00;99.90
21176;DHT22;10746;50.178;8.186;2022-10-29T06:55:21;14.00;99.90
21176;DHT22;10746;50.178;8.186;2022-10-29T06:57:55;14.30;99.90
21176;DHT22;10746;50.178;8.186;2022-10-29T07:00:21;14.20;99.90
21176;DHT22;10746;50.178;8.186;2022-10-29T07:02:48;14.20;99.90
21176;DHT22;10746;50.178;8.186;2022-10-29T07:05:15;14.30;99.90
21176;DHT22;10746;50.178;8.186;2022-10-29T07:07:42;14.30;99.90
21176;DHT22;10746;50.178;8.186;2022-10-29T07:10:10;14.20;99.90
21176;DHT22;10746;50.178;8.186;2022-10-29T07:12:39;14.30;99.90
21176;DHT22;10746;50.178;8.186;2022-10-29T07:15:06;14.30;99.90
21176;DHT22;10746;50.178;8.186;2022-10-29T07:17:33;14.40;99.90
21176;DHT22;10746;50.178;8.186;2022-10-29T07:20:00;14.30;99.90
21176;DHT22;10746;50.178;8.186;2022-10-29T07:22:27;14.40;99.90
21176;DHT22;10746;50.178;8.186;2022-10-29T07:24:54;14.50;99.90
21176;DHT22;10746;50.178;8.186;2022-10-29T07:27:22;14.70;99.90
21176;DHT22;10746;50.178;8.186;2022-10-29T07:29:49;14.70;99.90
21176;DHT22;10746;50.178;8.186;2022-10-29T07:32:15;14.70;99.90
21176;DHT22;10746;50.178;8.186;2022-10-29T07:34:42;14.90;99.90
21176;DHT22;10746;50.178;8.186;2022-10-29T07:37:09;15.00;99.90
21176;DHT22;10746;50.178;8.186;2022-10-29T07:39:36;15.10;99.90
21176;DHT22;10746;50.178;8.186;2022-10-29T07:42:03;15.20;99.90
21176;DHT22;10746;50.178;8.186;2022-10-29T07:44:31;15.40;99.90
21176;DHT22;10746;50.178;8.186;2022-10-29T07:46:58;15.30;99.90
21176;DHT22;10746;50.178;8.186;2022-10-29T07:49:26;15.40;99.90
21176;DHT22;10746;50.178;8.186;2022-10-29T07:51:53;15.40;99.90
21176;DHT22;10746;50.178;8.186;2022-10-29T07:54:19;15.50;99.90
21176;DHT22;10746;50.178;8.186;2022-10-29T07:56:46;15.60;99.90
21176;DHT22;10746;50.178;8.186;2022-10-29T07:59:13;15.70;99.90
21176;DHT22;10746;50.178;8.186;2022-10-29T08:01:43;15.70;99.90
21176;DHT22;10746;50.178;8.186;2022-10-29T08:04:10;15.90;99.90
21176;DHT22;10746;50.178;8.186;2022-10-29T08:06:37;15.80;99.90
21176;DHT22;10746;50.178;8.186;2022-10-29T08:09:04;15.70;99.90
21176;DHT22;10746;50.178;8.186;2022-10-29T08:11:31;15.60;99.90
21176;DHT22;10746;50.178;8.186;2022-10-29T08:13:58;15.80;99.90
21176;DHT22;10746;50.178;8.186;2022-10-29T08:16:25;15.80;99.90
21176;DHT22;10746;50.178;8.186;2022-10-29T08:18:53;15.80;99.90
21176;DHT22;10746;50.178;8.186;2022-10-29T08:21:20;15.80;99.90
21176;DHT22;10746;50.178;8.186;2022-10-29T08:23:47;15.80;99.90
21176;DHT22;10746;50.178;8.186;2022-10-29T08:26:14;15.70;99.90
21176;DHT22;10746;50.178;8.186;2022-10-29T08:28:41;15.80;99.90
21176;DHT22;10746;50.178;8.186;2022-10-29T08:31:08;15.80;99.90
21176;DHT22;10746;50.178;8.186;2022-10-29T08:33:35;15.70;99.90
21176;DHT22;10746;50.178;8.186;2022-10-29T08:36:03;15.60;99.90
21176;DHT22;10746;50.178;8.186;2022-10-29T08:38:30;15.60;99.90
21176;DHT22;10746;50.178;8.186;2022-10-29T08:41:08;15.50;99.90
21176;DHT22;10746;50.178;8.186;2022-10-29T08:44:16;15.50;99.90
21176;DHT22;10746;50.178;8.186;2022-10-29T08:46:46;15.60;99.90
21176;DHT22;10746;50.178;8.186;2022-10-29T08:49:18;15.60;99.90
21176;DHT22;10746;50.178;8.186;2022-10-29T08:51:52;15.80;99.90
21176;DHT22;10746;50.178;8.186;2022-10-29T08:54:21;15.70;99.90
21176;DHT22;10746;50.178;8.186;2022-10-29T08:56:51;15.90;99.90
21176;DHT22;10746;50.178;8.186;2022-10-29T08:59:20;15.70;99.90
21176;DHT22;10746;50.178;8.186;2022-10-29T09:01:47;15.70;99.90
21176;DHT22;10746;50.178;8.186;2022-10-29T09:04:22;15.60;99.90
21176;DHT22;10746;50.178;8.186;2022-10-29T09:07:01;15.60;99.90
21176;DHT22;10746;50.178;8.186;2022-10-29T09:09:33;15.60;99.90
21176;DHT22;10746;50.178;8.186;2022-10-29T09:12:17;15.60;99.90
21176;DHT22;10746;50.178;8.186;2022-10-29T09:15:08;15.70;99.90
21176;DHT22;10746;50.178;8.186;2022-10-29T09:17:44;15.80;99.90
21176;DHT22;10746;50.178;8.186;2022-10-29T09:20:22;16.00;99.90
21176;DHT22;10746;50.178;8.186;2022-10-29T09:23:01;16.10;99.90
21176;DHT22;10746;50.178;8.186;2022-10-29T09:25:38;16.30;99.90
21176;DHT22;10746;50.178;8.186;2022-10-29T09:28:21;16.30;99.90
21176;DHT22;10746;50.178;8.186;2022-10-29T09:30:53;16.40;99.90
21176;DHT22;10746;50.178;8.186;2022-10-29T09:33:24;16.40;99.90
21176;DHT22;10746;50.178;8.186;2022-10-29T09:35:53;16.30;99.90
21176;DHT22;10746;50.178;8.186;2022-10-29T09:38:23;16.40;99.90
21176;DHT22;10746;50.178;8.186;2022-10-29T09:40:50;16.40;99.90
21176;DHT22;10746;50.178;8.186;2022-10-29T09:43:27;16.50;99.90
21176;DHT22;10746;50.178;8.186;2022-10-29T09:46:02;16.60;99.90
21176;DHT22;10746;50.178;8.186;2022-10-29T09:48:35;16.60;99.90
21176;DHT22;10746;50.178;8.186;2022-10-29T09:51:10;16.60;99.90
21176;DHT22;10746;50.178;8.186;2022-10-29T09:53:42;16.60;99.90
21176;DHT22;10746;50.178;8.186;2022-10-29T09:56:09;16.60;99.90
21176;DHT22;10746;50.178;8.186;2022-10-29T09:58:38;16.60;99.90
21176;DHT22;10746;50.178;8.186;2022-10-29T10:01:07;16.60;99.90
21176;DHT22;10746;50.178;8.186;2022-10-29T10:03:37;16.60;99.90
21176;DHT22;10746;50.178;8.186;2022-10-29T10:06:07;16.70;99.90
21176;DHT22;10746;50.178;8.186;2022-10-29T10:09:00;16.70;99.90
21176;DHT22;10746;50.178;8.186;2022-10-29T10:11:34;16.70;99.90
21176;DHT22;10746;50.178;8.186;2022-10-29T10:14:07;16.80;99.90
21176;DHT22;10746;50.178;8.186;2022-10-29T10:16:35;16.90;99.90
21176;DHT22;10746;50.178;8.186;2022-10-29T10:19:02;17.00;99.90
21176;DHT22;10746;50.178;8.186;2022-10-29T10:21:55;17.10;99.90
21176;DHT22;10746;50.178;8.186;2022-10-29T10:24:32;17.40;99.90
21176;DHT22;10746;50.178;8.186;2022-10-29T10:26:59;17.50;99.90
21176;DHT22;10746;50.178;8.186;2022-10-29T10:29:27;17.60;99.90
21176;DHT22;10746;50.178;8.186;2022-10-29T10:32:09;17.60;99.90
21176;DHT22;10746;50.178;8.186;2022-10-29T10:34:37;17.70;99.90
21176;DHT22;10746;50.178;8.186;2022-10-29T10:37:13;17.80;99.90
21176;DHT22;10746;50.178;8.186;2022-10-29T10:39:45;17.90;99.90
21176;DHT22;10746;50.178;8.186;2022-10-29T10:42:18;18.00;99.90
21176;DHT22;10746;50.178;8.186;2022-10-29T10:44:48;18.30;99.90
21176;DHT22;10746;50.178;8.186;2022-10-29T10:47:18;18.20;99.90
21176;DHT22;10746;50.178;8.186;2022-10-29T10:49:45;18.20;99.90
21176;DHT22;10746;50.178;8.186;2022-10-29T10:52:16;18.10;99.90
21176;DHT22;10746;50.178;8.186;2022-10-29T10:54:46;18.20;99.90
21176;DHT22;10746;50.178;8.186;2022-10-29T10:57:22;18.30;99.90
21176;DHT22;10746;50.178;8.186;2022-10-29T10:59:56;18.10;99.90
21176;DHT22;10746;50.178;8.186;2022-10-29T11:02:32;18.10;99.90
21176;DHT22;10746;50.178;8.186;2022-10-29T11:05:07;18.00;99.90
21176;DHT22;10746;50.178;8.186;2022-10-29T11:07:38;18.10;99.90
21176;DHT22;10746;50.178;8.186;2022-10-29T11:10:10;18.00;99.90
21176;DHT22;10746;50.178;8.186;2022-10-29T11:12:41;18.00;99.90
21176;DHT22;10746;50.178;8.186;2022-10-29T11:15:14;18.20;99.90
21176;DHT22;10746;50.178;8.186;2022-10-29T11:17:46;18.00;99.90
21176;DHT22;10746;50.178;8.186;2022-10-29T11:20:18;18.10;99.90
21176;DHT22;10746;50.178;8.186;2022-10-29T11:22:53;18.10;99.90
21176;DHT22;10746;50.178;8.186;2022-10-29T11:25:28;18.20;99.90
21176;DHT22;10746;50.178;8.186;2022-10-29T11:28:00;18.30;99.90
21176;DHT22;10746;50.178;8.186;2022-10-29T11:30:32;18.40;99.90
21176;DHT22;10746;50.178;8.186;2022-10-29T11:33:08;18.30;99.90
21176;DHT22;10746;50.178;8.186;2022-10-29T11:35:42;18.30;99.90
21176;DHT22;10746;50.178;8.186;2022-10-29T11:38:14;18.20;99.90
21176;DHT22;10746;50.178;8.186;2022-10-29T11:40:46;18.20;99.90
21176;DHT22;10746;50.178;8.186;2022-10-29T11:43:17;18.20;99.90
21176;DHT22;10746;50.178;8.186;2022-10-29T11:46:01;18.10;99.90
21176;DHT22;10746;50.178;8.186;2022-10-29T11:48:41;18.10;99.90
21176;DHT22;10746;50.178;8.186;2022-10-29T11:51:19;18.00;99.90
21176;DHT22;10746;50.178;8.186;2022-10-29T11:54:00;18.00;99.90
21176;DHT22;10746;50.178;8.186;2022-10-29T11:56:49;18.10;99.90
21176;DHT22;10746;50.178;8.186;2022-10-29T11:59:29;18.00;99.90
21176;DHT22;10746;50.178;8.186;2022-10-29T12:02:05;18.00;99.90
21176;DHT22;10746;50.178;8.186;2022-10-29T12:04:39;18.00;99.90
21176;DHT22;10746;50.178;8.186;2022-10-29T12:07:19;18.00;99.90
21176;DHT22;10746;50.178;8.186;2022-10-29T12:10:05;18.00;99.90
21176;DHT22;10746;50.178;8.186;2022-10-29T12:12:43;18.00;99.90
21176;DHT22;10746;50.178;8.186;2022-10-29T12:15:19;18.00;99.90
21176;DHT22;10746;50.178;8.186;2022-10-29T12:17:56;18.00;99.90
21176;DHT22;10746;50.178;8.186;2022-10-29T12:20:30;18.10;99.90
21176;DHT22;10746;50.178;8.186;2022-10-29T12:23:08;18.00;99.90
21176;DHT22;10746;50.178;8.186;2022-10-29T12:25:46;18.00;99.90
21176;DHT22;10746;50.178;8.186;2022-10-29T12:28:22;18.00;99.90
21176;DHT22;10746;50.178;8.186;2022-10-29T12:31:04;17.90;99.90
21176;DHT22;10746;50.178;8.186;2022-10-29T12:33:37;17.80;99.90
21176;DHT22;10746;50.178;8.186;2022-10-29T12:36:10;17.90;99.90
21176;DHT22;10746;50.178;8.186;2022-10-29T12:38:41;17.90;99.90
21176;DHT22;10746;50.178;8.186;2022-10-29T12:41:13;17.70;99.90
21176;DHT22;10746;50.178;8.186;2022-10-29T12:43:42;17.90;99.90
21176;DHT22;10746;50.178;8.186;2022-10-29T12:46:18;17.70;99.90
21176;DHT22;10746;50.178;8.186;2022-10-29T12:48:53;17.90;99.90
21176;DHT22;10746;50.178;8.186;2022-10-29T12:51:25;17.80;99.90
21176;DHT22;10746;50.178;8.186;2022-10-29T12:56:48;17.90;99.90
21176;DHT22;10746;50.178;8.186;2022-10-29T12:59:32;17.90;99.90
21176;DHT22;10746;50.178;8.186;2022-10-29T13:02:17;18.00;99.90
21176;DHT22;10746;50.178;8.186;2022-10-29T13:05:13;18.00;99.90
21176;DHT22;10746;50.178;8.186;2022-10-29T13:10:48;18.00;99.90
21176;DHT22;10746;50.178;8.186;2022-10-29T13:13:34;18.00;99.90
21176;DHT22;10746;50.178;8.186;2022-10-29T13:16:06;17.80;99.90
21176;DHT22;10746;50.178;8.186;2022-10-29T13:18:45;17.90;99.90
21176;DHT22;10746;50.178;8.186;2022-10-29T13:24:38;18.00;99.90
21176;DHT22;10746;50.178;8.186;2022-10-29T13:27:32;18.00;99.90
21176;DHT22;10746;50.178;8.186;2022-10-29T13:30:21;17.90;99.90
21176;DHT22;10746;50.178;8.186;2022-10-29T13:32:51;18.00;99.90
21176;DHT22;10746;50.178;8.186;2022-10-29T13:35:45;18.10;99.90
21176;DHT22;10746;50.178;8.186;2022-10-29T13:38:17;18.10;99.90
21176;DHT22;10746;50.178;8.186;2022-10-29T13:41:12;18.20;99.90
21176;DHT22;10746;50.178;8.186;2022-10-29T13:43:42;18.30;99.90
21176;DHT22;10746;50.178;8.186;2022-10-29T13:46:28;18.40;99.90
21176;DHT22;10746;50.178;8.186;2022-10-29T13:49:01;18.40;99.90
21176;DHT22;10746;50.178;8.186;2022-10-29T13:51:35;18.60;99.90
21176;DHT22;10746;50.178;8.186;2022-10-29T13:54:07;18.50;99.90
21176;DHT22;10746;50.178;8.186;2022-10-29T13:56:40;18.40;99.90
21176;DHT22;10746;50.178;8.186;2022-10-29T13:59:17;18.50;99.90
21176;DHT22;10746;50.178;8.186;2022-10-29T14:01:54;18.40;99.90
21176;DHT22;10746;50.178;8.186;2022-10-29T14:04:29;18.40;99.90
21176;DHT22;10746;50.178;8.186;2022-10-29T14:06:59;18.40;99.90
21176;DHT22;10746;50.178;8.186;2022-10-29T14:09:35;18.60;99.90
21176;DHT22;10746;50.178;8.186;2022-10-29T14:12:05;18.40;99.90
21176;DHT22;10746;50.178;8.186;2022-10-29T14:14:36;18.50;99.90
21176;DHT22;10746;50.178;8.186;2022-10-29T14:17:08;18.60;99.90
21176;DHT22;10746;50.178;8.186;2022-10-29T14:19:42;18.70;99.90
21176;DHT22;10746;50.178;8.186;2022-10-29T14:22:28;18.60;99.90
21176;DHT22;10746;50.178;8.186;2022-10-29T14:24:58;18.60;99.90
21176;DHT22;10746;50.178;8.186;2022-10-29T14:27:24;18.50;99.90
21176;DHT22;10746;50.178;8.186;2022-10-29T14:29:51;18.50;99.90
21176;DHT22;10746;50.178;8.186;2022-10-29T14:32:19;18.50;99.90
21176;DHT22;10746;50.178;8.186;2022-10-29T14:34:49;18.50;99.90
21176;DHT22;10746;50.178;8.186;2022-10-29T14:37:21;18.50;99.90
21176;DHT22;10746;50.178;8.186;2022-10-29T14:39:51;18.40;99.90
21176;DHT22;10746;50.178;8.186;2022-10-29T14:42:23;18.40;99.90
21176;DHT22;10746;50.178;8.186;2022-10-29T14:44:54;18.30;99.90
21176;DHT22;10746;50.178;8.186;2022-10-29T14:47:23;18.40;99.90
21176;DHT22;10746;50.178;8.186;2022-10-29T14:49:53;18.40;99.90
21176;DHT22;10746;50.178;8.186;2022-10-29T14:52:27;18.30;99.90
21176;DHT22;10746;50.178;8.186;2022-10-29T14:54:56;18.20;99.90
21176;DHT22;10746;50.178;8.186;2022-10-29T14:57:26;18.20;99.90
21176;DHT22;10746;50.178;8.186;2022-10-29T14:59:57;18.20;99.90
21176;DHT22;10746;50.178;8.186;2022-10-29T15:02:27;18.20;99.90
21176;DHT22;10746;50.178;8.186;2022-10-29T15:05:00;18.10;99.90
21176;DHT22;10746;50.178;8.186;2022-10-29T15:07:31;18.00;99.90
21176;DHT22;10746;50.178;8.186;2022-10-29T15:10:16;18.10;99.90
21176;DHT22;10746;50.178;8.186;2022-10-29T15:12:44;18.00;99.90
21176;DHT22;10746;50.178;8.186;2022-10-29T15:15:21;17.90;99.90
21176;DHT22;10746;50.178;8.186;2022-10-29T15:17:51;17.80;99.90
21176;DHT22;10746;50.178;8.186;2022-10-29T15:20:22;17.60;99.90
21176;DHT22;10746;50.178;8.186;2022-10-29T15:22:52;17.50;99.90
21176;DHT22;10746;50.178;8.186;2022-10-29T15:25:23;17.40;99.90
21176;DHT22;10746;50.178;8.186;2022-10-29T15:27:54;17.30;99.90
21176;DHT22;10746;50.178;8.186;2022-10-29T15:30:28;17.20;99.90
21176;DHT22;10746;50.178;8.186;2022-10-29T15:32:57;17.20;99.90
21176;DHT22;10746;50.178;8.186;2022-10-29T15:35:26;17.10;99.90
21176;DHT22;10746;50.178;8.186;2022-10-29T15:37:54;17.10;99.90
21176;DHT22;10746;50.178;8.186;2022-10-29T15:40:27;17.10;99.90
21176;DHT22;10746;50.178;8.186;2022-10-29T15:43:27;17.00;99.90
21176;DHT22;10746;50.178;8.186;2022-10-29T15:45:56;16.80;99.90
21176;DHT22;10746;50.178;8.186;2022-10-29T15:48:28;16.70;99.90
21176;DHT22;10746;50.178;8.186;2022-10-29T15:50:58;16.60;99.90
21176;DHT22;10746;50.178;8.186;2022-10-29T15:53:24;16.60;99.90
21176;DHT22;10746;50.178;8.186;2022-10-29T15:55:53;16.60;99.90
21176;DHT22;10746;50.178;8.186;2022-10-29T15:58:22;16.40;99.90
21176;DHT22;10746;50.178;8.186;2022-10-29T16:00:49;16.40;99.90
21176;DHT22;10746;50.178;8.186;2022-10-29T16:03:20;16.20;99.90
21176;DHT22;10746;50.178;8.186;2022-10-29T16:05:52;16.10;99.90